Time;durP1;ratioP1;P1;durP2;ratioP2;P2;SDS_P1;SDS_P2;PMS_P1;PMS_P2;Temp;Humidity;BMP_temperature;BMP_pressure;BME280_temperature;BME280_humidity;BME280_pressure;Samples;Min_cycle;Max_cycle;Signal;HPM_P1;HPM_P2
2024/02/12 00:02:01;;;;;;;23.23;13.10;;;;;;;18.18;99.93;101012.34;10614533;27;20042;-79
2024/02/12 00:07:26;;;;;;;15.25;10.85;;;;;;;18.19;100.00;101003.41;10630763;27;20054;-77
2024/02/12 00:12:51;;;;;;;17.35;10.32;;;;;;;18.30;100.00;100987.28;10614899;27;20039;-78
2024/02/12 00:18:15;;;;;;;13.05;8.93;;;;;;;18.31;97.65;100981.88;10603923;27;20070;-78
2024/02/12 00:23:37;;;;;;;14.43;9.23;;;;;;;18.28;98.83;100965.00;10603048;28;20096;-78
2024/02/12 00:29:01;;;;;;;15.10;9.30;;;;;;;18.27;100.00;100960.56;10597265;27;20547;-78
2024/02/12 00:34:25;;;;;;;14.80;7.78;;;;;;;18.37;97.66;100945.31;10615679;27;20131;-78
2024/02/12 00:39:48;;;;;;;11.18;6.45;;;;;;;18.35;99.37;100928.41;10597336;27;20043;-80
2024/02/12 00:45:12;;;;;;;11.05;5.70;;;;;;;18.23;99.52;100927.66;10603910;27;20067;-78
2024/02/12 00:50:36;;;;;;;14.18;5.72;;;;;;;18.35;98.16;100923.94;10617379;27;20047;-78
2024/02/12 00:55:59;;;;;;;15.77;5.97;;;;;;;18.37;94.51;100915.91;10646178;27;20577;-79
2024/02/12 01:01:21;;;;;;;13.55;6.10;;;;;;;18.30;96.12;100950.75;10617403;27;20130;-78
2024/02/12 01:06:45;;;;;;;18.88;6.18;;;;;;;18.25;100.00;100968.59;10594292;27;20516;-79
2024/02/12 01:12:08;;;;;;;26.20;8.13;;;;;;;18.22;100.00;100943.72;10603409;27;20043;-78
2024/02/12 01:17:31;;;;;;;13.05;6.78;;;;;;;18.28;96.86;100939.16;10579070;28;20059;-77
2024/02/12 01:22:56;;;;;;;14.35;7.60;;;;;;;18.35;96.58;100957.81;10562798;28;20071;-79
2024/02/12 01:28:18;;;;;;;12.52;8.63;;;;;;;18.28;100.00;100962.34;10565065;28;20047;-78
2024/02/12 01:33:42;;;;;;;19.27;10.20;;;;;;;18.33;100.00;100945.34;10558353;28;20536;-78
2024/02/12 01:39:06;;;;;;;14.18;9.27;;;;;;;18.20;99.61;100948.19;10550201;28;20100;-77
2024/02/12 01:44:29;;;;;;;17.58;9.48;;;;;;;18.29;100.00;100948.06;10563776;28;20055;-78
2024/02/12 01:49:55;;;;;;;15.57;9.25;;;;;;;18.22;100.00;100959.75;10578642;28;20052;-78
2024/02/12 01:55:20;;;;;;;17.42;9.50;;;;;;;18.15;100.00;100969.63;10560695;28;20043;-78
2024/02/12 02:00:46;;;;;;;15.07;9.18;;;;;;;18.08;100.00;100945.66;10561847;28;20078;-78
2024/02/12 02:06:12;;;;;;;13.57;8.10;;;;;;;18.02;100.00;100948.41;10533879;28;20384;-78
2024/02/12 02:11:36;;;;;;;10.65;6.18;;;;;;;18.13;100.00;100943.81;10576087;28;20140;-78
2024/02/12 02:16:59;;;;;;;11.90;7.55;;;;;;;18.05;100.00;100935.03;10575315;28;20063;-78
2024/02/12 02:22:22;;;;;;;13.95;7.32;;;;;;;17.99;100.00;100932.41;10576920;28;20096;-78
2024/02/12 02:27:46;;;;;;;13.52;6.88;;;;;;;17.99;100.00;100933.28;10562293;28;20055;-78
2024/02/12 02:33:08;;;;;;;14.30;6.95;;;;;;;17.96;100.00;100901.28;10567757;28;20039;-79
2024/02/12 02:38:31;;;;;;;17.50;9.45;;;;;;;17.97;100.00;100912.88;10556239;28;20112;-77
2024/02/12 02:43:55;;;;;;;11.52;8.10;;;;;;;17.85;100.00;100917.44;10559238;28;20419;-78
2024/02/12 02:49:18;;;;;;;17.77;7.68;;;;;;;18.03;100.00;100934.16;10562494;28;20100;-79
2024/02/12 02:54:40;;;;;;;15.95;8.45;;;;;;;17.92;100.00;100911.13;10575553;28;20070;-78
2024/02/12 03:00:06;;;;;;;14.80;8.45;;;;;;;18.00;100.00;100920.81;10560096;28;20055;-78
2024/02/12 03:05:28;;;;;;;13.50;6.60;;;;;;;18.02;100.00;100906.56;10559769;28;20044;-78
2024/02/12 03:10:53;;;;;;;11.10;6.07;;;;;;;18.07;100.00;100894.00;10551454;28;20373;-78
2024/02/12 03:16:17;;;;;;;15.23;7.55;;;;;;;18.07;100.00;100893.13;10560108;28;20047;-78
2024/02/12 03:21:40;;;;;;;11.77;7.05;;;;;;;17.91;100.00;100887.13;10547851;28;20043;-78
2024/02/12 03:27:03;;;;;;;13.00;7.95;;;;;;;17.96;100.00;100898.63;10574653;28;20085;-78
2024/02/12 03:32:27;;;;;;;16.38;8.57;;;;;;;18.00;100.00;100896.78;10571127;28;20051;-78
2024/02/12 03:37:49;;;;;;;15.95;8.25;;;;;;;17.93;100.00;100894.19;10574202;28;20104;-77
2024/02/12 03:43:14;;;;;;;17.70;8.98;;;;;;;17.89;100.00;100883.56;10560034;28;20040;-78
2024/02/12 03:59:58;;;;;;;15.27;8.18;;;;;;;18.10;100.00;100851.25;10571059;28;20044;-78
2024/02/12 04:05:22;;;;;;;14.70;8.15;;;;;;;18.05;100.00;100863.75;10560097;28;20056;-78
2024/02/12 04:10:45;;;;;;;14.10;9.05;;;;;;;18.08;100.00;100861.06;10544993;28;20082;-78
2024/02/12 04:16:14;;;;;;;17.17;8.57;;;;;;;18.09;100.00;100865.50;10558920;28;20059;-77
2024/02/12 04:21:38;;;;;;;18.85;10.25;;;;;;;18.13;100.00;100853.84;10571857;28;20071;-78
2024/02/12 04:27:04;;;;;;;18.30;10.20;;;;;;;18.06;100.00;100854.84;10568550;28;20044;-79
2024/02/12 04:32:27;;;;;;;15.88;9.57;;;;;;;18.13;100.00;100845.84;10552137;28;20610;-78
2024/02/12 04:37:52;;;;;;;20.15;10.15;;;;;;;18.14;100.00;100871.66;10566744;28;20430;-79
2024/02/12 04:43:16;;;;;;;18.30;10.18;;;;;;;18.15;100.00;100868.09;10567087;28;20565;-79
2024/02/12 04:48:38;;;;;;;14.95;8.52;;;;;;;18.14;100.00;100876.13;10581266;28;20488;-78
2024/02/12 04:54:02;;;;;;;18.98;10.57;;;;;;;18.03;100.00;100878.06;10559878;28;20109;-79
2024/02/12 04:59:25;;;;;;;18.75;12.10;;;;;;;18.14;100.00;100886.81;10538746;28;20072;-78
2024/02/12 05:04:47;;;;;;;19.95;12.50;;;;;;;18.11;100.00;100873.50;10578316;28;20047;-78
2024/02/12 05:10:12;;;;;;;18.67;12.40;;;;;;;18.08;100.00;100862.84;10567313;28;20051;-78
2024/02/12 05:15:34;;;;;;;16.67;11.40;;;;;;;18.07;100.00;100843.25;10536021;28;20043;-78
2024/02/12 05:26:39;;;;;;;20.60;11.20;;;;;;;18.31;100.00;100848.22;10607768;27;20086;-78
2024/02/12 05:32:02;;;;;;;20.38;10.55;;;;;;;18.47;100.00;100832.88;10606544;27;20098;-76
2024/02/12 05:37:24;;;;;;;17.92;11.48;;;;;;;18.50;100.00;100843.53;10617347;27;20047;-78
2024/02/12 05:42:48;;;;;;;13.70;10.35;;;;;;;18.61;100.00;100833.56;10621934;27;20054;-78
2024/02/12 05:48:11;;;;;;;17.92;11.82;;;;;;;18.71;100.00;100831.59;10607542;27;20051;-78
2024/02/12 05:53:34;;;;;;;18.88;12.88;;;;;;;18.86;100.00;100841.16;10617332;27;20067;-78
2024/02/12 05:58:58;;;;;;;19.50;13.55;;;;;;;18.91;100.00;100863.38;10606527;27;20142;-78
2024/02/12 06:04:21;;;;;;;17.95;12.02;;;;;;;19.10;100.00;100855.00;10604386;27;20071;-78
2024/02/12 06:09:43;;;;;;;20.15;13.88;;;;;;;19.16;100.00;100858.50;10605254;27;20047;-78
2024/02/12 06:15:09;;;;;;;24.15;15.13;;;;;;;19.26;100.00;100850.25;10598259;27;20043;-77
2024/02/12 06:20:33;;;;;;;20.23;14.13;;;;;;;19.38;100.00;100876.78;10551400;27;20492;-77
2024/02/12 06:25:55;;;;;;;21.45;13.75;;;;;;;19.46;91.63;100864.19;10604667;27;20073;-78
2024/02/12 06:31:19;;;;;;;18.05;13.88;;;;;;;19.59;88.13;100870.19;10583195;27;20092;-78
2024/02/12 06:36:42;;;;;;;17.10;13.40;;;;;;;19.84;84.12;100855.38;10585344;27;20047;-78
2024/02/12 06:42:05;;;;;;;23.33;15.50;;;;;;;19.85;90.95;100862.50;10559143;27;20051;-78
2024/02/12 06:47:29;;;;;;;23.70;15.15;;;;;;;19.91;82.29;100853.44;10584328;27;20075;-78
2024/02/12 06:52:52;;;;;;;21.05;16.17;;;;;;;20.13;78.05;100857.44;10589504;27;20380;-79
2024/02/12 06:58:14;;;;;;;23.85;15.30;;;;;;;20.12;84.67;100857.47;10574785;27;20054;-78
2024/02/12 07:03:38;;;;;;;21.55;15.70;;;;;;;20.51;80.15;100853.91;10546120;27;20059;-79
2024/02/12 07:09:00;;;;;;;22.55;13.25;;;;;;;21.20;71.66;100850.41;10579499;27;20316;-78
2024/02/12 07:14:23;;;;;;;23.27;15.38;;;;;;;21.06;73.83;100849.88;10590340;27;20043;-78
2024/02/12 07:19:49;;;;;;;22.88;15.70;;;;;;;21.09;73.25;100839.03;10604046;27;20039;-79
2024/02/12 07:25:12;;;;;;;26.02;13.10;;;;;;;21.68;62.71;100834.72;10588950;27;20390;-78
2024/02/12 07:30:34;;;;;;;21.08;14.57;;;;;;;22.03;64.98;100820.28;10603785;27;20487;-78
2024/02/12 07:35:58;;;;;;;25.85;16.40;;;;;;;22.18;59.08;100817.13;10596391;27;20051;-79
2024/02/12 07:41:20;;;;;;;23.17;16.50;;;;;;;22.09;64.14;100814.72;10601656;27;20074;-78
2024/02/12 07:46:43;;;;;;;19.08;13.30;;;;;;;22.40;56.44;100802.97;10602711;27;20467;-79
2024/02/12 07:52:09;;;;;;;21.02;12.70;;;;;;;23.30;53.04;100795.44;10602258;27;20070;-78
2024/02/12 07:57:31;;;;;;;16.17;9.52;;;;;;;25.12;45.58;100811.56;10596700;27;20138;-79
2024/02/12 08:02:54;;;;;;;17.38;11.55;;;;;;;23.96;46.92;100820.84;10605318;27;20554;-79
2024/02/12 08:08:19;;;;;;;15.18;10.50;;;;;;;23.54;48.83;100808.03;10597468;27;20043;-79
2024/02/12 08:13:44;;;;;;;23.35;13.13;;;;;;;22.92;51.71;100821.88;10614089;27;20074;-78
2024/02/12 08:19:06;;;;;;;23.52;12.88;;;;;;;22.27;55.83;100816.81;10629523;27;20103;-79
2024/02/12 08:24:30;;;;;;;21.88;14.52;;;;;;;22.17;60.69;100820.75;10599873;27;20051;-79
2024/02/12 08:29:53;;;;;;;20.70;13.13;;;;;;;21.99;67.14;100804.31;10590743;27;20039;-79
2024/02/12 08:35:15;;;;;;;29.40;13.88;;;;;;;22.17;65.84;100772.34;10597710;28;20047;-79
2024/02/12 08:40:39;;;;;;;21.63;13.15;;;;;;;22.17;59.30;100777.72;10556103;27;20043;-79
2024/02/12 08:46:02;;;;;;;26.00;12.02;;;;;;;22.45;59.08;100756.16;10560001;28;20048;-78
2024/02/12 08:51:24;;;;;;;21.25;12.02;;;;;;;22.20;61.25;100745.31;10594382;27;20147;-79
2024/02/12 08:56:48;;;;;;;21.83;11.35;;;;;;;22.25;59.96;100747.88;10600428;27;20059;-78
2024/02/12 09:02:11;;;;;;;19.38;11.80;;;;;;;23.20;55.90;100750.88;10598071;28;20047;-79
2024/02/12 09:07:33;;;;;;;16.77;9.93;;;;;;;23.31;55.51;100748.66;10616366;27;20428;-79
2024/02/12 09:12:59;;;;;;;21.05;10.18;;;;;;;23.07;53.82;100752.25;10568274;27;20107;-79
2024/02/12 09:18:22;;;;;;;17.45;11.25;;;;;;;23.93;53.37;100750.81;10604324;27;20100;-79
2024/02/12 09:23:44;;;;;;;23.33;12.45;;;;;;;23.35;54.85;100731.47;10636390;27;20142;-80
2024/02/12 09:29:08;;;;;;;19.63;11.43;;;;;;;23.50;53.19;100720.13;10610068;27;20693;-79
2024/02/12 09:34:32;;;;;;;23.05;11.45;;;;;;;23.54;52.95;100719.09;10643112;27;20127;-79
2024/02/12 09:39:55;;;;;;;21.05;11.77;;;;;;;22.76;52.40;100696.81;10622979;27;20080;-79
2024/02/12 09:45:19;;;;;;;26.98;11.65;;;;;;;22.71;54.72;100696.06;10650733;27;20047;-79
2024/02/12 09:50:44;;;;;;;19.42;11.07;;;;;;;22.49;53.11;100678.91;10614077;27;20097;-80
2024/02/12 09:56:07;;;;;;;18.00;11.35;;;;;;;22.74;55.35;100705.88;10594202;27;20036;-79
2024/02/12 10:01:31;;;;;;;19.55;10.80;;;;;;;22.59;51.69;100691.09;10599715;27;20058;-79
2024/02/12 10:06:57;;;;;;;23.95;10.75;;;;;;;22.42;56.34;100670.19;10626619;27;20046;-79
2024/02/12 10:12:20;;;;;;;18.60;10.98;;;;;;;22.16;58.58;100654.94;10612776;27;20046;-79
2024/02/12 10:17:46;;;;;;;20.55;10.65;;;;;;;22.44;59.35;100654.00;10573014;28;20047;-79
2024/02/12 10:23:09;;;;;;;19.88;10.32;;;;;;;22.98;59.14;100665.47;10565411;28;20146;-79
2024/02/12 10:28:31;;;;;;;19.60;9.98;;;;;;;23.19;57.00;100654.84;10554274;28;20044;-79
2024/02/12 10:33:57;;;;;;;15.50;9.13;;;;;;;25.17;48.88;100645.59;10547406;28;20048;-79
2024/02/12 10:39:22;;;;;;;17.58;8.77;;;;;;;26.57;42.19;100634.16;10576169;28;20055;-80
2024/02/12 10:44:49;;;;;;;16.02;7.95;;;;;;;27.75;40.60;100625.88;10547242;28;20044;-79
2024/02/12 10:50:14;;;;;;;19.40;9.77;;;;;;;25.51;41.87;100598.03;10576552;28;20042;-79
2024/02/12 10:55:38;;;;;;;19.17;8.48;;;;;;;24.69;45.42;100612.66;10553555;28;20043;-80
2024/02/12 11:01:05;;;;;;;20.17;9.48;;;;;;;24.02;49.91;100572.44;10575558;28;20391;-79
2024/02/12 11:06:30;;;;;;;21.20;10.32;;;;;;;23.87;52.69;100573.97;10562074;28;20047;-78
2024/02/12 11:11:59;;;;;;;13.65;8.25;;;;;;;23.16;56.51;100568.78;10548081;28;20407;-78
2024/02/12 11:17:23;;;;;;;21.10;9.05;;;;;;;23.15;54.90;100558.94;10558890;28;20112;-78
2024/02/12 11:22:47;;;;;;;21.63;8.45;;;;;;;23.39;56.43;100544.47;10561917;28;20502;-79
2024/02/12 11:28:15;;;;;;;16.60;7.88;;;;;;;23.47;53.92;100546.88;10560155;28;20052;-79
2024/02/12 11:33:42;;;;;;;18.55;9.55;;;;;;;23.30;57.39;100513.38;10561074;28;20055;-78
2024/02/12 11:39:07;;;;;;;20.10;10.93;;;;;;;22.95;58.40;100497.78;10511000;28;20067;-79
2024/02/12 11:44:30;;;;;;;19.63;7.18;;;;;;;22.89;56.94;100474.69;10546950;28;20083;-79
2024/02/12 11:49:52;;;;;;;18.38;8.20;;;;;;;22.71;57.70;100467.25;10547158;28;20047;-79
2024/02/12 11:55:18;;;;;;;9.90;6.25;;;;;;;22.55;57.92;100463.44;10559922;28;20046;-78
2024/02/12 12:00:40;;;;;;;17.33;6.78;;;;;;;22.09;63.88;100461.59;10559860;28;20147;-78
2024/02/12 12:06:03;;;;;;;19.45;6.82;;;;;;;21.20;74.78;100454.84;10560291;28;20530;-78
2024/02/12 12:11:27;;;;;;;19.90;7.75;;;;;;;21.48;71.10;100464.59;10574784;28;20128;-78
2024/02/12 12:16:51;;;;;;;19.92;7.22;;;;;;;21.80;67.90;100435.72;10573727;28;20062;-78
2024/02/12 12:22:18;;;;;;;23.60;6.45;;;;;;;22.60;59.25;100432.72;10573970;28;20055;-79
2024/02/12 12:27:42;;;;;;;27.75;6.90;;;;;;;22.67;63.31;100422.59;10559991;28;20085;-79
2024/02/12 12:33:05;;;;;;;22.95;6.68;;;;;;;22.61;69.05;100412.94;10559922;28;20079;-78
2024/02/12 12:38:28;;;;;;;21.92;6.57;;;;;;;22.05;73.07;100407.06;10559839;28;20139;-79
2024/02/12 12:43:52;;;;;;;15.50;6.32;;;;;;;21.81;70.01;100394.47;10561068;28;20180;-78
2024/02/12 12:49:17;;;;;;;15.75;6.78;;;;;;;20.80;81.21;100401.53;10568626;28;20135;-78
2024/02/12 12:54:39;;;;;;;17.60;8.35;;;;;;;20.91;78.07;100399.38;10567626;28;20039;-79
2024/02/12 13:00:05;;;;;;;14.38;5.47;;;;;;;21.33;77.25;100403.31;10563771;28;20044;-77
2024/02/12 13:05:27;;;;;;;17.15;6.07;;;;;;;22.17;70.94;100393.16;10563845;28;20478;-78
2024/02/12 13:10:51;;;;;;;15.60;4.50;;;;;;;22.27;65.03;100374.84;10580301;28;20044;-79
2024/02/12 13:16:15;;;;;;;21.02;5.65;;;;;;;22.41;62.21;100377.00;10579539;28;20519;-78
2024/02/12 13:21:38;;;;;;;18.52;5.68;;;;;;;21.93;71.36;100377.88;10565244;28;20047;-78
2024/02/12 13:27:01;;;;;;;15.30;6.00;;;;;;;21.65;80.35;100390.59;10566180;28;20043;-79
2024/02/12 13:32:24;;;;;;;19.05;6.63;;;;;;;20.98;89.35;100392.88;10561541;28;20403;-78
2024/02/12 13:37:47;;;;;;;20.65;5.85;;;;;;;20.18;100.00;100374.81;10554106;28;20050;-80
2024/02/12 13:43:09;;;;;;;19.67;6.90;;;;;;;20.46;100.00;100373.09;10555428;28;20047;-81
2024/02/12 13:48:33;;;;;;;13.98;6.15;;;;;;;21.00;87.49;100370.41;10574289;28;20035;-81
2024/02/12 13:53:56;;;;;;;16.40;6.78;;;;;;;21.25;86.42;100378.56;10556022;28;20032;-77
2024/02/12 13:59:18;;;;;;;20.67;6.38;;;;;;;20.96;94.54;100384.88;10562952;28;20073;-80
2024/02/12 14:04:43;;;;;;;15.57;5.45;;;;;;;20.91;93.00;100377.91;10574743;28;20059;-78
2024/02/12 14:10:06;;;;;;;17.63;5.50;;;;;;;20.65;91.24;100365.34;10579047;27;20081;-79
2024/02/12 14:15:30;;;;;;;24.40;6.20;;;;;;;20.94;86.12;100353.63;10628925;27;20462;-81
2024/02/12 14:20:55;;;;;;;23.67;5.03;;;;;;;21.21;83.06;100347.34;10595418;27;20053;-79
2024/02/12 14:26:19;;;;;;;15.82;4.95;;;;;;;21.19;82.97;100335.81;10593687;27;20038;-80
2024/02/12 14:31:41;;;;;;;19.88;5.45;;;;;;;21.09;82.79;100337.00;10588186;27;20050;-79
2024/02/12 14:37:05;;;;;;;17.60;5.22;;;;;;;20.60;89.37;100329.75;10588629;27;20486;-81
2024/02/12 14:42:28;;;;;;;21.60;6.45;;;;;;;20.30;92.42;100315.47;10589439;27;20043;-80
2024/02/12 14:47:51;;;;;;;20.27;6.45;;;;;;;20.21;91.88;100332.72;10605299;27;20097;-79
2024/02/12 14:53:16;;;;;;;20.48;6.20;;;;;;;20.30;92.63;100339.59;10603618;27;20535;-81
2024/02/12 14:58:39;;;;;;;21.27;6.70;;;;;;;20.12;93.32;100342.84;10558525;28;20075;-79
2024/02/12 15:04:02;;;;;;;21.73;5.80;;;;;;;19.91;96.37;100339.00;10599059;27;20538;-79
2024/02/12 15:09:28;;;;;;;25.17;6.80;;;;;;;19.74;98.48;100350.22;10605138;27;20040;-82
2024/02/12 15:14:51;;;;;;;18.15;5.65;;;;;;;19.58;99.33;100311.38;10603622;27;20051;-80
2024/02/12 15:20:14;;;;;;;20.85;6.75;;;;;;;19.34;100.00;100318.28;10589660;27;20069;-80
2024/02/12 15:25:38;;;;;;;22.27;6.72;;;;;;;19.23;100.00;100311.47;10579878;27;20066;-78
2024/02/12 15:31:00;;;;;;;27.58;6.85;;;;;;;19.08;100.00;100305.59;10577041;27;20285;-80
2024/02/12 15:36:23;;;;;;;29.50;6.65;;;;;;;18.93;100.00;100314.03;10596073;27;20047;-78
2024/02/12 15:41:47;;;;;;;26.55;6.15;;;;;;;18.79;100.00;100313.50;10562912;27;20164;-80
2024/02/12 15:47:09;;;;;;;16.90;5.85;;;;;;;18.73;100.00;100326.13;10585473;27;20046;-80
2024/02/12 15:52:32;;;;;;;20.35;5.10;;;;;;;18.70;100.00;100340.47;10594030;27;20069;-78
2024/02/12 15:57:56;;;;;;;16.95;4.80;;;;;;;18.57;100.00;100331.88;10588893;27;20103;-80
2024/02/12 16:03:18;;;;;;;21.45;5.75;;;;;;;18.38;100.00;100337.66;10577230;27;20119;-78
2024/02/12 16:08:44;;;;;;;22.25;9.82;;;;;;;18.27;100.00;100354.78;10555614;27;20104;-77
2024/02/12 16:14:08;;;;;;;26.42;7.13;;;;;;;18.16;100.00;100358.63;10588709;28;20520;-80
2024/02/12 16:19:31;;;;;;;22.20;6.22;;;;;;;18.07;100.00;100361.47;10557937;27;20148;-79
2024/02/12 16:24:53;;;;;;;25.35;6.18;;;;;;;17.83;100.00;100371.78;10575257;27;20082;-82
2024/02/12 16:30:17;;;;;;;17.88;5.00;;;;;;;17.79;100.00;100388.75;10562561;27;20437;-81
2024/02/12 16:35:40;;;;;;;59.28;38.95;;;;;;;17.95;100.00;100416.06;10545484;27;20047;-80
2024/02/12 16:41:02;;;;;;;32.58;18.30;;;;;;;17.92;100.00;100432.13;10553778;27;20043;-78
2024/02/12 16:46:26;;;;;;;38.75;17.98;;;;;;;18.16;100.00;100439.66;10591436;27;20474;-80
2024/02/12 16:51:49;;;;;;;36.97;10.10;;;;;;;18.15;100.00;100445.03;10595937;27;20523;-79
2024/02/12 16:57:12;;;;;;;32.80;6.10;;;;;;;17.96;100.00;100452.53;10549186;27;20040;-82
2024/02/12 17:02:37;;;;;;;45.47;18.67;;;;;;;17.74;100.00;100465.41;10564061;28;20052;-82
2024/02/12 17:07:59;;;;;;;38.25;10.88;;;;;;;17.78;100.00;100464.47;10558186;27;20126;-79
2024/02/12 17:13:22;;;;;;;39.92;10.63;;;;;;;17.87;100.00;100472.28;10569187;27;20134;-79
2024/02/12 17:18:46;;;;;;;45.67;12.65;;;;;;;17.81;100.00;100482.19;10619326;27;20050;-77
2024/02/12 17:24:09;;;;;;;36.17;8.00;;;;;;;17.57;100.00;100482.63;10567890;27;20035;-78
2024/02/12 17:29:32;;;;;;;33.70;7.60;;;;;;;17.76;100.00;100479.63;10591903;27;20483;-77
2024/02/12 17:34:56;;;;;;;33.67;5.35;;;;;;;17.78;100.00;100495.63;10579899;27;20066;-76
2024/02/12 17:40:19;;;;;;;51.83;16.50;;;;;;;17.73;100.00;100494.81;10589279;27;20142;-80
2024/02/12 17:45:41;;;;;;;42.42;12.45;;;;;;;17.60;100.00;100490.56;10606177;27;20079;-80
2024/02/12 17:51:07;;;;;;;33.15;8.30;;;;;;;17.41;100.00;100496.22;10600890;27;20036;-77
2024/02/12 17:56:30;;;;;;;35.05;13.02;;;;;;;17.19;100.00;100501.94;10596046;27;20047;-80
2024/02/12 18:01:53;;;;;;;42.78;13.75;;;;;;;16.98;100.00;100511.13;10607066;27;20047;-79
2024/02/12 18:07:17;;;;;;;41.17;15.27;;;;;;;16.79;100.00;100520.31;10596472;27;20043;-81
2024/02/12 18:12:44;;;;;;;48.72;18.38;;;;;;;16.68;100.00;100529.31;10595031;27;20043;-80
2024/02/12 18:18:07;;;;;;;41.92;15.65;;;;;;;16.71;100.00;100531.94;10600461;27;20047;-79
2024/02/12 18:23:31;;;;;;;51.80;24.65;;;;;;;16.62;100.00;100529.38;10605881;27;20134;-81
2024/02/12 18:28:54;;;;;;;37.15;14.93;;;;;;;16.63;100.00;100531.16;10593857;27;20074;-82
2024/02/12 18:34:19;;;;;;;44.63;16.85;;;;;;;16.53;100.00;100542.81;10595642;27;20062;-80
2024/02/12 18:39:44;;;;;;;53.40;32.42;;;;;;;16.35;100.00;100541.22;10607437;27;20071;-80
2024/02/12 18:45:07;;;;;;;41.30;13.88;;;;;;;16.07;100.00;100549.56;10608852;27;20062;-79
2024/02/12 18:50:29;;;;;;;42.88;10.35;;;;;;;15.97;100.00;100564.72;10593843;27;20433;-78
2024/02/12 18:55:53;;;;;;;57.45;22.50;;;;;;;16.38;100.00;100580.28;10567433;27;20376;-77
2024/02/12 19:01:17;;;;;;;38.83;10.52;;;;;;;16.66;100.00;100586.22;10590821;27;20047;-79
2024/02/12 19:06:40;;;;;;;34.72;9.57;;;;;;;16.46;100.00;100574.88;10592441;27;20050;-81
2024/02/12 19:12:04;;;;;;;43.95;14.45;;;;;;;16.43;100.00;100588.22;10575462;27;20096;-80
2024/02/12 19:17:26;;;;;;;33.83;7.15;;;;;;;16.43;100.00;100599.75;10591741;27;20054;-79
2024/02/12 19:22:49;;;;;;;37.22;11.75;;;;;;;16.56;100.00;100600.50;10590454;27;20051;-76
2024/02/12 19:28:13;;;;;;;34.28;7.18;;;;;;;16.45;100.00;100592.66;10592316;27;20111;-76
2024/02/12 19:33:35;;;;;;;36.70;10.02;;;;;;;16.28;100.00;100594.59;10575790;27;20057;-76
2024/02/12 19:38:58;;;;;;;40.78;10.23;;;;;;;15.97;100.00;100595.78;10597682;27;20039;-78
2024/02/12 19:44:22;;;;;;;41.75;10.55;;;;;;;15.68;100.00;100602.25;10600900;27;20134;-78
2024/02/12 19:49:45;;;;;;;35.17;12.80;;;;;;;15.51;100.00;100607.66;10598342;27;20039;-82
2024/02/12 19:55:08;;;;;;;49.80;21.60;;;;;;;15.66;100.00;100603.16;10586345;27;20129;-78
2024/02/12 20:00:33;;;;;;;33.33;8.65;;;;;;;15.71;100.00;100606.66;10581577;27;20120;-80
2024/02/12 20:05:55;;;;;;;31.13;10.10;;;;;;;15.56;100.00;100598.81;10577450;27;20127;-78
2024/02/12 20:11:18;;;;;;;23.75;5.55;;;;;;;15.29;100.00;100599.84;10577383;27;20035;-77
2024/02/12 20:16:43;;;;;;;92.53;48.17;;;;;;;15.04;100.00;100599.97;10599949;28;20543;-77
2024/02/12 20:22:06;;;;;;;37.72;12.07;;;;;;;14.83;100.00;100601.88;10577028;28;20082;-78
2024/02/12 20:27:28;;;;;;;25.08;8.82;;;;;;;14.71;100.00;100605.44;10604693;28;20065;-77
2024/02/12 20:32:52;;;;;;;33.72;8.75;;;;;;;14.46;100.00;100603.75;10586139;28;20047;-77
2024/02/12 20:38:15;;;;;;;27.77;7.93;;;;;;;14.45;100.00;100601.97;10587240;28;20096;-78
2024/02/12 20:43:38;;;;;;;20.60;4.50;;;;;;;14.63;100.00;100591.31;10606898;28;20054;-77
2024/02/12 20:49:06;;;;;;;70.70;49.00;;;;;;;14.79;100.00;100592.13;10601343;28;20079;-78
2024/02/12 20:54:32;;;;;;;32.30;10.48;;;;;;;14.54;100.00;100591.34;10601348;28;20039;-77
2024/02/12 20:59:54;;;;;;;37.80;17.70;;;;;;;14.21;100.00;100590.50;10608877;27;20071;-77
2024/02/12 21:05:19;;;;;;;33.28;13.30;;;;;;;14.01;100.00;100586.13;10599255;27;20734;-77
2024/02/12 21:10:42;;;;;;;19.77;7.28;;;;;;;13.78;100.00;100586.16;10609267;27;20487;-77
2024/02/12 21:16:05;;;;;;;26.30;9.70;;;;;;;13.44;100.00;100585.25;10537955;28;20052;-77
2024/02/12 21:21:30;;;;;;;28.70;11.32;;;;;;;13.24;100.00;100587.88;10565422;28;20128;-78
2024/02/12 21:26:53;;;;;;;36.40;12.35;;;;;;;13.30;100.00;100590.53;10559125;28;20156;-77
2024/02/12 21:32:15;;;;;;;21.17;8.07;;;;;;;13.12;100.00;100593.13;10579443;28;20043;-77
2024/02/12 21:37:40;;;;;;;22.45;9.73;;;;;;;13.05;100.00;100599.28;10579228;28;20079;-77
2024/02/12 21:43:03;;;;;;;24.48;9.68;;;;;;;12.98;100.00;100601.03;10578339;28;20059;-78
2024/02/12 21:48:25;;;;;;;18.52;6.28;;;;;;;12.95;100.00;100608.06;10579170;28;20377;-78
2024/02/12 21:53:49;;;;;;;16.25;5.75;;;;;;;12.97;100.00;100598.38;10578894;28;20074;-78
2024/02/12 21:59:12;;;;;;;18.58;4.68;;;;;;;13.02;100.00;100608.09;10556529;28;20064;-77
2024/02/12 22:04:35;;;;;;;17.65;4.18;;;;;;;13.09;100.00;100599.28;10537385;28;20158;-77
2024/02/12 22:09:59;;;;;;;26.25;13.13;;;;;;;12.90;100.00;100601.88;10569832;28;20488;-77
2024/02/12 22:15:23;;;;;;;24.95;14.60;;;;;;;12.87;100.00;100604.50;10582326;27;20051;-77
2024/02/12 22:20:46;;;;;;;36.85;23.65;;;;;;;12.68;100.00;100596.47;10568476;27;20053;-78
2024/02/12 22:26:10;;;;;;;19.50;7.85;;;;;;;12.63;100.00;100603.53;10553805;27;20047;-77
2024/02/12 22:31:33;;;;;;;17.70;5.95;;;;;;;12.73;100.00;100599.19;10577717;27;20047;-77
2024/02/12 22:36:55;;;;;;;22.42;6.22;;;;;;;12.97;100.00;100598.38;10588910;27;20081;-77
2024/02/12 22:42:21;;;;;;;18.17;4.80;;;;;;;12.96;100.00;100592.19;10568664;27;20048;-77
2024/02/12 22:47:44;;;;;;;21.02;4.72;;;;;;;12.84;100.00;100589.50;10584530;27;20055;-78
2024/02/12 22:53:10;;;;;;;16.45;4.28;;;;;;;12.75;100.00;100595.63;10591869;27;20143;-77
2024/02/12 22:58:34;;;;;;;16.65;5.72;;;;;;;12.73;100.00;100602.69;10584813;27;20587;-78
2024/02/12 23:03:56;;;;;;;28.55;12.70;;;;;;;12.61;100.00;100602.63;10578784;27;20039;-77
2024/02/12 23:09:19;;;;;;;22.15;10.00;;;;;;;12.35;100.00;100596.31;10581112;27;20079;-78
2024/02/12 23:14:43;;;;;;;17.42;5.05;;;;;;;12.27;100.00;100595.41;10552832;27;20503;-78
2024/02/12 23:20:07;;;;;;;19.85;5.47;;;;;;;12.21;100.00;100605.94;10583341;27;20039;-78
2024/02/12 23:25:31;;;;;;;17.27;4.95;;;;;;;12.59;100.00;100598.22;10538751;28;20055;-77
2024/02/12 23:30:55;;;;;;;19.65;4.50;;;;;;;12.77;100.00;100595.66;10569528;27;20066;-76
2024/02/12 23:36:17;;;;;;;18.50;4.82;;;;;;;12.87;100.00;100592.13;10560962;27;20035;-77
2024/02/12 23:41:39;;;;;;;23.88;7.60;;;;;;;12.66;100.00;100592.97;10573004;27;20073;-78
2024/02/12 23:47:04;;;;;;;24.52;7.18;;;;;;;12.55;100.00;100591.13;10529250;27;20575;-77
2024/02/12 23:52:26;;;;;;;31.85;8.70;;;;;;;12.45;100.00;100591.97;10583005;27;20062;-77
2024/02/12 23:57:49;;;;;;;22.83;7.75;;;;;;;12.59;100.00;100592.94;10577372;27;20051;-77
